Time;durP1;ratioP1;P1;durP2;ratioP2;P2;SDS_P1;SDS_P2;PMS_P1;PMS_P2;Temp;Humidity;BMP_temperature;BMP_pressure;BME280_temperature;BME280_humidity;BME280_pressure;Samples;Min_cycle;Max_cycle;Signal;HPM_P1;HPM_P2
2024/01/15 00:01:28;;;;;;;24.73;10.53;;;-0.60;1.00;;;;;;5020013;28;20935;-74
2024/01/15 00:03:54;;;;;;;27.07;10.00;;;-1.10;1.00;;;;;;5036936;28;20408;-73
2024/01/15 00:06:20;;;;;;;31.47;10.83;;;-0.20;1.00;;;;;;5039579;28;20201;-75
2024/01/15 00:08:45;;;;;;;28.40;10.97;;;-0.80;1.00;;;;;;5033556;28;20204;-73
2024/01/15 00:11:11;;;;;;;28.03;11.17;;;-1.30;1.00;;;;;;5031773;28;20189;-73
2024/01/15 00:13:36;;;;;;;28.37;11.07;;;-1.00;1.00;;;;;;5011082;28;20649;-74
2024/01/15 00:16:02;;;;;;;26.83;11.10;;;-0.50;1.00;;;;;;5026352;28;20585;-78
2024/01/15 00:18:27;;;;;;;30.27;10.00;;;-0.80;1.00;;;;;;5045313;28;20177;-73
2024/01/15 00:20:53;;;;;;;29.37;11.53;;;-1.30;1.00;;;;;;5033084;28;20563;-73
2024/01/15 00:23:18;;;;;;;31.57;11.17;;;-0.80;1.00;;;;;;5040497;28;20205;-74
2024/01/15 00:25:44;;;;;;;38.87;11.47;;;-0.30;1.00;;;;;;5028500;28;20196;-75
2024/01/15 00:28:09;;;;;;;26.70;11.43;;;-0.30;1.00;;;;;;5036177;28;20174;-74
2024/01/15 00:30:35;;;;;;;25.77;10.40;;;-0.80;1.00;;;;;;5033366;28;20210;-74
2024/01/15 00:33:00;;;;;;;23.83;10.70;;;-1.10;1.00;;;;;;5038216;28;20210;-76
2024/01/15 00:35:26;;;;;;;25.83;10.13;;;-0.70;1.00;;;;;;5032337;28;20602;-74
2024/01/15 00:37:51;;;;;;;24.60;9.17;;;-0.80;1.00;;;;;;5028527;28;20179;-73
2024/01/15 00:40:17;;;;;;;26.77;9.73;;;-0.80;1.00;;;;;;5027517;28;20193;-76
2024/01/15 00:42:42;;;;;;;28.10;10.47;;;-0.50;1.00;;;;;;5021574;28;20174;-75
2024/01/15 00:45:08;;;;;;;29.40;10.43;;;0.60;1.00;;;;;;5025028;28;20181;-74
2024/01/15 00:47:34;;;;;;;29.03;11.23;;;-0.70;1.00;;;;;;5025702;28;20189;-75
2024/01/15 00:50:00;;;;;;;23.00;9.37;;;-0.90;1.00;;;;;;5033358;28;20431;-74
2024/01/15 00:52:26;;;;;;;28.77;10.73;;;-0.40;1.00;;;;;;5039406;28;20181;-75
2024/01/15 00:54:51;;;;;;;29.30;11.60;;;-1.30;1.00;;;;;;5031013;28;20216;-73
2024/01/15 00:57:18;;;;;;;21.20;9.47;;;-0.70;1.00;;;;;;5036797;28;20170;-73
2024/01/15 00:59:44;;;;;;;28.53;10.50;;;-1.30;1.00;;;;;;5024643;28;20727;-74
2024/01/15 01:02:10;;;;;;;31.77;10.93;;;-1.30;1.00;;;;;;5036854;28;20496;-75
2024/01/15 01:04:35;;;;;;;25.37;10.37;;;-0.60;1.00;;;;;;5038842;28;20185;-73
2024/01/15 01:07:01;;;;;;;23.20;9.33;;;-0.40;1.00;;;;;;5031701;28;20177;-73
2024/01/15 01:09:29;;;;;;;25.60;10.67;;;-0.80;1.00;;;;;;5018269;28;20210;-77
2024/01/15 01:11:54;;;;;;;34.13;11.13;;;-0.40;1.00;;;;;;5031623;28;20178;-74
2024/01/15 01:14:20;;;;;;;34.70;11.50;;;-0.90;1.00;;;;;;5025229;28;20498;-73
2024/01/15 01:16:45;;;;;;;23.97;10.07;;;-0.30;1.00;;;;;;5049669;28;20176;-73
2024/01/15 01:19:10;;;;;;;27.70;11.53;;;-0.70;1.00;;;;;;5045021;28;20201;-76
2024/01/15 01:21:36;;;;;;;32.70;10.33;;;-0.80;1.00;;;;;;5022387;28;20327;-74
2024/01/15 01:24:02;;;;;;;24.60;10.03;;;-0.20;1.00;;;;;;5023568;28;20239;-74
2024/01/15 01:26:27;;;;;;;31.10;10.17;;;-0.60;1.00;;;;;;5038569;28;20204;-76
2024/01/15 01:28:53;;;;;;;30.23;10.63;;;-0.80;1.00;;;;;;5016013;28;20552;-74
2024/01/15 01:31:18;;;;;;;28.97;10.23;;;-0.70;1.00;;;;;;5038722;28;20323;-73
2024/01/15 01:33:44;;;;;;;35.53;11.40;;;-1.00;1.00;;;;;;5019825;28;20183;-74
2024/01/15 01:36:10;;;;;;;30.90;11.17;;;-0.80;1.00;;;;;;5012115;28;20211;-75
2024/01/15 01:38:36;;;;;;;31.43;12.50;;;-0.70;1.00;;;;;;5023102;28;20209;-73
2024/01/15 01:41:02;;;;;;;30.50;11.60;;;-0.60;1.00;;;;;;5041526;28;20427;-77
2024/01/15 01:43:27;;;;;;;35.27;11.27;;;-0.40;1.00;;;;;;5029625;28;20614;-73
2024/01/15 01:45:56;;;;;;;32.07;11.70;;;-0.60;1.00;;;;;;5031757;28;20195;-79
2024/01/15 01:48:22;;;;;;;30.70;12.13;;;-0.70;1.00;;;;;;5034669;28;20641;-74
2024/01/15 01:50:47;;;;;;;34.00;11.50;;;-0.60;1.00;;;;;;5020168;28;20433;-72
2024/01/15 01:53:13;;;;;;;25.87;10.40;;;-0.80;1.00;;;;;;5023894;28;20186;-75
2024/01/15 01:55:39;;;;;;;28.97;10.63;;;-0.30;1.00;;;;;;5014443;28;20226;-74
2024/01/15 01:58:05;;;;;;;30.10;10.47;;;-0.10;1.00;;;;;;5032621;28;20662;-76
2024/01/15 02:00:32;;;;;;;30.60;11.27;;;-0.40;1.00;;;;;;5030933;28;20471;-74
2024/01/15 02:02:57;;;;;;;32.70;11.90;;;-0.50;1.00;;;;;;5030522;28;20190;-73
2024/01/15 02:05:23;;;;;;;26.67;11.00;;;-0.50;1.00;;;;;;5031880;28;20601;-75
2024/01/15 02:07:48;;;;;;;32.93;12.73;;;0.00;1.00;;;;;;5033331;28;20181;-74
2024/01/15 02:10:14;;;;;;;32.07;10.80;;;-0.50;1.00;;;;;;5041309;28;20201;-74
2024/01/15 02:12:40;;;;;;;27.73;10.57;;;-1.00;1.00;;;;;;5024993;28;20181;-75
2024/01/15 02:15:06;;;;;;;32.23;10.10;;;-0.50;1.00;;;;;;5033408;28;20209;-75
2024/01/15 02:17:31;;;;;;;29.03;11.50;;;-0.30;1.00;;;;;;5026004;28;20707;-76
2024/01/15 02:19:57;;;;;;;28.77;9.20;;;-0.70;1.00;;;;;;5034289;28;20202;-74
2024/01/15 02:22:22;;;;;;;27.77;10.30;;;-0.70;1.00;;;;;;5024069;28;20174;-74
2024/01/15 02:24:48;;;;;;;35.43;11.97;;;-0.50;1.00;;;;;;5035426;28;20675;-76
2024/01/15 02:27:13;;;;;;;24.90;10.50;;;-0.20;1.00;;;;;;5022908;28;20227;-74
2024/01/15 02:29:40;;;;;;;28.60;9.83;;;-0.60;1.00;;;;;;5041146;28;20209;-73
2024/01/15 02:32:06;;;;;;;36.87;14.10;;;-0.40;1.00;;;;;;5022785;28;20182;-73
2024/01/15 02:34:34;;;;;;;29.93;10.40;;;-0.60;1.00;;;;;;5030874;28;20461;-73
2024/01/15 02:36:59;;;;;;;31.17;10.77;;;-0.50;1.00;;;;;;5030747;28;20453;-74
2024/01/15 02:39:25;;;;;;;22.93;9.47;;;-0.20;1.00;;;;;;5029346;28;20468;-73
2024/01/15 02:41:50;;;;;;;25.77;10.67;;;-0.60;1.00;;;;;;5026474;28;20182;-75
2024/01/15 02:44:16;;;;;;;27.87;10.53;;;-0.20;1.00;;;;;;5031385;28;20190;-74
2024/01/15 02:46:41;;;;;;;24.70;9.80;;;-0.10;1.00;;;;;;5016645;28;20179;-74
2024/01/15 02:49:07;;;;;;;25.60;9.67;;;-0.50;1.00;;;;;;5039321;28;20209;-74
2024/01/15 02:51:32;;;;;;;25.60;10.17;;;-0.20;1.00;;;;;;5032846;28;20192;-75
2024/01/15 02:53:58;;;;;;;30.13;10.87;;;-0.40;1.00;;;;;;5042426;28;20185;-74
2024/01/15 02:56:24;;;;;;;22.33;9.10;;;-1.00;1.00;;;;;;5017521;28;20201;-75
2024/01/15 02:58:49;;;;;;;23.30;10.00;;;-0.50;1.00;;;;;;5020080;28;20293;-77
2024/01/15 03:01:14;;;;;;;23.07;10.13;;;-0.50;1.00;;;;;;5020883;28;20180;-73
2024/01/15 03:03:40;;;;;;;17.67;7.67;;;-0.30;1.00;;;;;;5028111;28;20648;-74
2024/01/15 03:06:06;;;;;;;26.60;9.17;;;-0.70;1.00;;;;;;5042157;28;20206;-75
2024/01/15 03:08:31;;;;;;;23.30;9.17;;;-0.50;1.00;;;;;;5039944;28;20193;-75
2024/01/15 03:10:57;;;;;;;25.10;9.43;;;-1.10;1.00;;;;;;5030782;28;20196;-74
2024/01/15 03:13:22;;;;;;;27.83;10.57;;;-0.20;1.00;;;;;;5023975;28;20221;-74
2024/01/15 03:15:48;;;;;;;23.83;8.83;;;-0.30;1.00;;;;;;5029290;28;20233;-76
2024/01/15 03:18:13;;;;;;;27.13;9.93;;;-0.40;1.00;;;;;;5033182;28;20220;-73
2024/01/15 03:20:39;;;;;;;25.37;9.37;;;-0.80;1.00;;;;;;5026516;28;20258;-73
2024/01/15 03:23:05;;;;;;;26.03;10.40;;;-0.40;1.00;;;;;;5019704;28;20186;-73
2024/01/15 03:25:30;;;;;;;24.63;9.70;;;-0.20;1.00;;;;;;5040393;28;20427;-75
2024/01/15 03:27:56;;;;;;;20.27;9.00;;;-0.60;1.00;;;;;;5024768;28;20194;-73
2024/01/15 03:30:21;;;;;;;23.67;8.80;;;-0.40;1.00;;;;;;5032628;28;20675;-72
2024/01/15 03:32:47;;;;;;;21.87;8.50;;;-0.50;1.00;;;;;;5029579;28;20261;-74
2024/01/15 03:35:13;;;;;;;22.13;9.07;;;-0.40;1.00;;;;;;5029414;28;20563;-74
2024/01/15 03:37:38;;;;;;;24.53;9.70;;;-0.20;1.00;;;;;;5030461;28;20186;-74
2024/01/15 03:40:04;;;;;;;29.70;9.40;;;-0.40;1.00;;;;;;5020077;28;20259;-74
2024/01/15 03:42:30;;;;;;;21.70;8.47;;;-0.60;1.00;;;;;;5022147;28;20738;-74
2024/01/15 03:44:55;;;;;;;19.13;8.60;;;-0.60;1.00;;;;;;5027812;28;20456;-77
2024/01/15 03:47:21;;;;;;;20.70;8.33;;;-0.90;1.00;;;;;;5033004;28;20637;-74
2024/01/15 03:49:46;;;;;;;25.77;8.60;;;-0.50;1.00;;;;;;5028462;28;20203;-74
2024/01/15 03:52:12;;;;;;;21.83;8.10;;;-0.10;1.00;;;;;;5025739;28;20174;-76
2024/01/15 03:54:37;;;;;;;23.63;8.97;;;-0.30;1.00;;;;;;5037248;28;20608;-73
2024/01/15 03:57:03;;;;;;;23.47;10.10;;;0.00;1.00;;;;;;5036476;28;20178;-73
2024/01/15 03:59:29;;;;;;;23.27;9.10;;;-0.40;1.00;;;;;;5033711;28;20213;-74
2024/01/15 04:01:54;;;;;;;18.63;8.03;;;0.00;1.00;;;;;;5024052;28;20179;-76
2024/01/15 04:04:20;;;;;;;19.77;7.83;;;0.00;1.00;;;;;;5036207;28;20198;-73
2024/01/15 04:06:45;;;;;;;21.73;8.60;;;-0.40;1.00;;;;;;5025704;28;20667;-73
2024/01/15 04:09:14;;;;;;;21.10;8.30;;;0.00;1.00;;;;;;5028218;28;20189;-74
2024/01/15 04:11:40;;;;;;;20.00;8.07;;;-0.30;1.00;;;;;;5035976;28;20174;-74
2024/01/15 04:14:06;;;;;;;18.80;8.50;;;-0.20;1.00;;;;;;5023115;28;20412;-74
2024/01/15 04:16:31;;;;;;;14.27;5.87;;;-0.20;1.00;;;;;;5030992;28;20182;-74
2024/01/15 04:18:57;;;;;;;19.37;8.03;;;-0.40;1.00;;;;;;5028357;28;20202;-74
2024/01/15 04:21:22;;;;;;;18.63;7.37;;;0.00;1.00;;;;;;5024313;28;20240;-73
2024/01/15 04:23:47;;;;;;;22.70;7.97;;;-0.20;1.00;;;;;;5032011;28;20192;-74
2024/01/15 04:26:13;;;;;;;23.90;8.80;;;-0.50;1.00;;;;;;5032615;28;20205;-73
2024/01/15 04:28:38;;;;;;;20.50;7.23;;;-0.20;1.00;;;;;;5036992;28;20202;-73
2024/01/15 04:31:04;;;;;;;23.00;9.00;;;0.00;1.00;;;;;;5036010;28;20521;-73
2024/01/15 04:33:29;;;;;;;15.90;6.80;;;0.00;1.00;;;;;;5031044;28;20213;-77
2024/01/15 04:35:55;;;;;;;23.40;7.50;;;-0.30;1.00;;;;;;5018520;28;20209;-71
2024/01/15 04:38:20;;;;;;;21.90;8.47;;;-0.40;1.00;;;;;;5028073;28;20233;-74
2024/01/15 04:40:46;;;;;;;26.10;8.83;;;-0.40;1.00;;;;;;5026278;28;20629;-75
2024/01/15 04:43:11;;;;;;;22.50;8.33;;;-0.90;1.00;;;;;;5034803;28;20363;-74
2024/01/15 04:45:37;;;;;;;18.27;6.80;;;-0.50;1.00;;;;;;5021663;28;20623;-75
2024/01/15 04:48:03;;;;;;;19.30;7.93;;;0.00;1.00;;;;;;5032959;28;20178;-74
2024/01/15 04:50:28;;;;;;;21.30;8.10;;;-0.50;1.00;;;;;;5029943;28;20208;-77
2024/01/15 04:52:54;;;;;;;20.70;8.57;;;-0.90;1.00;;;;;;5045234;28;20204;-74
2024/01/15 04:55:19;;;;;;;15.70;7.27;;;-0.40;1.00;;;;;;5039216;28;20209;-73
2024/01/15 04:57:45;;;;;;;18.93;8.30;;;-0.30;1.00;;;;;;5021460;28;20186;-76
2024/01/15 05:00:12;;;;;;;20.53;8.63;;;-0.20;1.00;;;;;;5034646;28;20217;-72
2024/01/15 05:02:37;;;;;;;22.03;9.43;;;-0.40;1.00;;;;;;5022970;28;20648;-74
2024/01/15 05:05:03;;;;;;;19.10;8.63;;;-0.40;1.00;;;;;;5029363;28;20416;-74
2024/01/15 05:07:29;;;;;;;18.33;7.60;;;-0.40;1.00;;;;;;5037370;28;20575;-74
2024/01/15 05:09:55;;;;;;;19.03;8.20;;;0.20;1.00;;;;;;5028353;28;20455;-74
2024/01/15 05:12:20;;;;;;;20.60;8.20;;;-0.20;1.00;;;;;;5029742;28;20186;-76
2024/01/15 05:14:46;;;;;;;21.80;8.50;;;0.00;1.00;;;;;;5039305;28;20210;-74
2024/01/15 05:17:11;;;;;;;19.23;8.13;;;-0.40;1.00;;;;;;5033804;28;20193;-76
2024/01/15 05:19:37;;;;;;;21.03;8.00;;;-0.40;1.00;;;;;;5027400;28;20611;-74
2024/01/15 05:22:03;;;;;;;20.20;8.77;;;-0.10;1.00;;;;;;5042674;28;20181;-74
2024/01/15 05:24:28;;;;;;;25.47;9.00;;;-0.40;1.00;;;;;;5037374;28;20197;-74
2024/01/15 05:26:54;;;;;;;25.93;9.13;;;-0.50;1.00;;;;;;5034075;28;20560;-73
2024/01/15 05:29:19;;;;;;;21.40;8.50;;;-0.20;1.00;;;;;;5041245;28;20284;-74
2024/01/15 05:31:45;;;;;;;22.07;8.93;;;-0.20;1.00;;;;;;5024858;28;20252;-75
2024/01/15 05:34:10;;;;;;;18.37;8.53;;;-0.80;1.00;;;;;;5013789;28;20192;-74
2024/01/15 05:36:36;;;;;;;17.67;7.87;;;-0.20;1.00;;;;;;5039531;28;20260;-74
2024/01/15 05:39:01;;;;;;;19.80;8.63;;;-0.30;1.00;;;;;;5031436;28;20244;-74
2024/01/15 05:41:27;;;;;;;22.23;9.23;;;-0.30;1.00;;;;;;5034821;28;20178;-74
2024/01/15 05:43:52;;;;;;;21.77;8.50;;;-0.40;1.00;;;;;;5033421;28;20289;-78
2024/01/15 05:46:18;;;;;;;19.57;9.87;;;-0.30;1.00;;;;;;5038689;28;20212;-74
2024/01/15 05:48:43;;;;;;;23.13;8.33;;;-0.80;1.00;;;;;;5024849;28;20202;-74
2024/01/15 05:51:10;;;;;;;19.73;9.73;;;-0.20;1.00;;;;;;5024437;28;20175;-76
2024/01/15 05:53:35;;;;;;;22.07;8.40;;;-0.50;1.00;;;;;;5037664;28;20178;-78
2024/01/15 05:56:01;;;;;;;22.20;8.97;;;-0.50;1.00;;;;;;5030370;28;20491;-73
2024/01/15 05:58:26;;;;;;;22.37;9.70;;;-0.50;1.00;;;;;;5041689;28;20196;-75
2024/01/15 06:00:52;;;;;;;18.90;9.50;;;;;;;;;;5027370;28;20653;-73
2024/01/15 06:03:18;;;;;;;21.00;8.90;;;-0.50;1.00;;;;;;5026215;28;20185;-75
2024/01/15 06:05:43;;;;;;;19.90;9.67;;;-0.40;1.00;;;;;;5031754;28;20186;-72
2024/01/15 06:08:09;;;;;;;23.30;9.07;;;0.30;1.00;;;;;;5027767;28;20220;-75
2024/01/15 06:10:35;;;;;;;25.10;10.10;;;-0.30;1.00;;;;;;5027373;28;20321;-74
2024/01/15 06:13:01;;;;;;;22.20;9.20;;;-0.50;1.00;;;;;;5027730;28;20239;-74
2024/01/15 06:15:26;;;;;;;21.27;8.77;;;-0.30;1.00;;;;;;5015328;28;20977;-77
2024/01/15 06:17:52;;;;;;;19.07;8.57;;;0.10;1.00;;;;;;5029899;28;20182;-74
2024/01/15 06:20:17;;;;;;;19.90;8.60;;;0.10;1.00;;;;;;5038796;28;20194;-76
2024/01/15 06:22:43;;;;;;;16.77;8.17;;;-0.20;1.00;;;;;;5016495;28;20547;-75
2024/01/15 06:25:09;;;;;;;25.60;9.57;;;-0.10;1.00;;;;;;5013275;28;20226;-74
2024/01/15 06:27:34;;;;;;;19.80;7.73;;;-0.60;1.00;;;;;;5026932;28;20189;-74
2024/01/15 06:30:00;;;;;;;19.50;9.10;;;-0.10;1.00;;;;;;5021222;28;20305;-74
2024/01/15 06:32:25;;;;;;;21.33;8.90;;;-0.40;1.00;;;;;;5025922;28;20181;-75
2024/01/15 06:34:51;;;;;;;20.57;9.10;;;0.10;1.00;;;;;;5026411;28;20198;-74
2024/01/15 06:37:18;;;;;;;20.40;8.27;;;-0.10;1.00;;;;;;5028273;28;20186;-74
2024/01/15 06:39:44;;;;;;;22.33;9.07;;;-0.10;1.00;;;;;;5021168;28;20687;-74
2024/01/15 06:42:09;;;;;;;21.57;10.00;;;0.40;1.00;;;;;;5025491;28;20435;-77
2024/01/15 06:44:35;;;;;;;20.20;8.70;;;0.40;1.00;;;;;;5017831;28;21205;-73
2024/01/15 06:47:02;;;;;;;23.63;10.20;;;0.40;1.00;;;;;;5015395;28;20213;-76
2024/01/15 06:49:29;;;;;;;24.73;9.60;;;-0.10;1.00;;;;;;5031379;28;20687;-73
2024/01/15 06:51:55;;;;;;;24.77;9.97;;;0.50;1.00;;;;;;5024568;28;20982;-74
2024/01/15 06:54:20;;;;;;;23.30;9.23;;;0.60;1.00;;;;;;5028752;28;20563;-78
2024/01/15 06:56:46;;;;;;;20.47;8.80;;;0.70;1.00;;;;;;5026846;28;20181;-73
2024/01/15 06:59:11;;;;;;;24.13;9.60;;;0.60;1.00;;;;;;5016039;28;20696;-74
2024/01/15 07:01:37;;;;;;;20.03;8.40;;;0.20;1.00;;;;;;5023993;28;20185;-76
2024/01/15 07:04:03;;;;;;;21.33;9.27;;;0.30;1.00;;;;;;5028710;28;20204;-73
2024/01/15 07:06:30;;;;;;;21.17;8.13;;;0.60;1.00;;;;;;5011741;28;20192;-74
2024/01/15 07:08:56;;;;;;;20.17;8.90;;;0.10;1.00;;;;;;5019063;28;20448;-76
2024/01/15 07:11:21;;;;;;;25.57;9.90;;;0.30;1.00;;;;;;5011561;28;20795;-78
2024/01/15 07:13:47;;;;;;;21.77;9.23;;;0.70;1.00;;;;;;5033648;28;20186;-76
2024/01/15 07:16:12;;;;;;;24.00;9.97;;;0.60;1.00;;;;;;5021630;28;20209;-74
2024/01/15 07:18:38;;;;;;;23.37;9.60;;;0.30;1.00;;;;;;5026917;28;20201;-74
2024/01/15 07:21:04;;;;;;;19.00;8.80;;;0.30;1.00;;;;;;5030811;28;20209;-76
2024/01/15 07:23:31;;;;;;;21.30;9.27;;;0.60;1.00;;;;;;5012532;28;20568;-74
2024/01/15 07:25:57;;;;;;;23.23;9.40;;;0.30;1.00;;;;;;5026014;28;20591;-74
2024/01/15 07:28:22;;;;;;;21.73;8.97;;;0.00;1.00;;;;;;5035704;28;20421;-74
2024/01/15 07:30:48;;;;;;;22.77;9.00;;;0.10;1.00;;;;;;5020695;28;20714;-77
2024/01/15 07:33:13;;;;;;;22.80;9.63;;;0.80;1.00;;;;;;5015728;28;20185;-74
2024/01/15 07:35:39;;;;;;;21.10;9.97;;;0.80;1.00;;;;;;5028611;28;20225;-74
2024/01/15 07:38:04;;;;;;;24.40;8.93;;;0.80;1.00;;;;;;5012563;28;20178;-77
2024/01/15 07:40:30;;;;;;;23.37;8.83;;;0.40;1.00;;;;;;5019129;28;20208;-75
2024/01/15 07:42:55;;;;;;;23.83;10.73;;;0.50;1.00;;;;;;5023544;28;20193;-76
2024/01/15 07:45:21;;;;;;;19.10;8.27;;;0.80;1.00;;;;;;5028928;28;20178;-76
2024/01/15 07:47:46;;;;;;;23.80;10.40;;;0.90;1.00;;;;;;5027898;28;20200;-75
2024/01/15 07:50:12;;;;;;;22.00;9.10;;;0.10;1.00;;;;;;5021842;28;20212;-74
2024/01/15 07:52:41;;;;;;;23.67;9.90;;;3.00;1.00;;;;;;5032220;28;20260;-74
2024/01/15 07:55:07;;;;;;;23.47;10.27;;;0.90;1.00;;;;;;5022997;28;20267;-75
2024/01/15 07:57:33;;;;;;;27.07;11.10;;;0.50;1.00;;;;;;5033262;28;20421;-73
2024/01/15 07:59:58;;;;;;;18.00;8.70;;;0.90;1.00;;;;;;5022351;28;20982;-74
2024/01/15 08:02:24;;;;;;;19.00;8.90;;;1.00;1.00;;;;;;5028802;28;20174;-72
2024/01/15 08:04:49;;;;;;;18.70;8.97;;;0.50;1.00;;;;;;5024238;28;20639;-75
2024/01/15 08:07:15;;;;;;;24.40;10.07;;;0.90;1.00;;;;;;5030598;28;20170;-74
2024/01/15 08:09:41;;;;;;;27.00;10.77;;;1.00;1.00;;;;;;5030477;28;20248;-73
2024/01/15 08:12:07;;;;;;;25.00;9.23;;;0.90;1.00;;;;;;5020121;28;20232;-75
2024/01/15 08:14:33;;;;;;;19.60;9.53;;;0.60;1.00;;;;;;5026843;28;20423;-74
2024/01/15 08:16:58;;;;;;;22.87;9.37;;;1.10;1.00;;;;;;5021257;28;20186;-75
2024/01/15 08:19:24;;;;;;;23.53;9.30;;;1.10;1.00;;;;;;5025520;28;20190;-77
2024/01/15 08:21:49;;;;;;;23.30;9.10;;;0.70;1.00;;;;;;5038137;28;20181;-73
2024/01/15 08:24:16;;;;;;;24.07;8.97;;;1.20;1.00;;;;;;5030766;28;20177;-72
2024/01/15 08:26:42;;;;;;;19.53;9.10;;;1.20;1.00;;;;;;5019225;28;20178;-73
2024/01/15 08:29:07;;;;;;;20.03;8.60;;;0.80;1.00;;;;;;5029878;28;20436;-74
2024/01/15 08:31:33;;;;;;;24.17;9.33;;;0.70;1.00;;;;;;5025707;28;20173;-73
2024/01/15 08:33:59;;;;;;;20.73;8.80;;;0.80;1.00;;;;;;5028271;28;20668;-77
2024/01/15 08:36:25;;;;;;;21.37;8.93;;;0.90;1.00;;;;;;5017408;28;20285;-76
2024/01/15 08:38:50;;;;;;;18.63;7.63;;;0.80;1.00;;;;;;5025461;28;20539;-73
2024/01/15 08:41:16;;;;;;;20.73;8.80;;;0.70;1.00;;;;;;5012533;28;20162;-74
2024/01/15 08:43:41;;;;;;;21.27;9.77;;;0.70;1.00;;;;;;5025551;28;20174;-76
2024/01/15 08:46:07;;;;;;;25.13;10.43;;;1.10;1.00;;;;;;5022418;28;20174;-77
2024/01/15 08:48:32;;;;;;;21.37;9.33;;;0.90;1.00;;;;;;5021221;28;20573;-76
2024/01/15 08:50:58;;;;;;;19.10;9.00;;;1.30;1.00;;;;;;5025640;28;20186;-74
2024/01/15 08:53:23;;;;;;;23.03;9.80;;;0.90;1.00;;;;;;5027610;28;20173;-76
2024/01/15 08:55:49;;;;;;;22.33;8.73;;;1.00;1.00;;;;;;5017974;28;20194;-73
2024/01/15 08:58:15;;;;;;;28.10;9.93;;;1.30;1.00;;;;;;5020116;28;20175;-74
2024/01/15 09:00:41;;;;;;;20.13;9.20;;;1.00;1.00;;;;;;5023705;28;20208;-74
2024/01/15 09:03:08;;;;;;;18.80;8.87;;;1.00;1.00;;;;;;5030832;28;20548;-74
2024/01/15 09:05:33;;;;;;;21.73;9.17;;;1.20;1.00;;;;;;5014719;28;20261;-73
2024/01/15 09:07:59;;;;;;;24.23;8.33;;;1.50;1.00;;;;;;5016242;28;20496;-74
2024/01/15 09:10:24;;;;;;;22.67;9.27;;;1.00;1.00;;;;;;5027088;28;20284;-74
2024/01/15 09:12:50;;;;;;;18.17;8.70;;;1.40;1.00;;;;;;5029681;28;20256;-73
2024/01/15 09:15:16;;;;;;;15.10;8.30;;;1.50;1.00;;;;;;5030526;28;20710;-75
2024/01/15 09:17:42;;;;;;;20.70;9.73;;;1.60;1.00;;;;;;5015511;28;20413;-75
2024/01/15 09:20:09;;;;;;;20.13;8.37;;;1.10;1.00;;;;;;5025802;28;20615;-74
2024/01/15 09:22:35;;;;;;;20.53;9.20;;;1.10;1.00;;;;;;5021676;28;20496;-74
2024/01/15 09:25:01;;;;;;;19.40;8.27;;;1.20;1.00;;;;;;5023365;28;20499;-76
2024/01/15 09:27:26;;;;;;;15.03;7.60;;;1.70;1.00;;;;;;5028950;28;20178;-73
2024/01/15 09:29:52;;;;;;;17.23;7.97;;;1.30;1.00;;;;;;5016619;28;20268;-72
2024/01/15 09:32:18;;;;;;;17.80;8.90;;;1.80;1.00;;;;;;5020258;28;20414;-72
2024/01/15 09:34:46;;;;;;;19.17;8.20;;;1.40;1.00;;;;;;5026760;28;20548;-74
2024/01/15 09:37:11;;;;;;;15.27;7.57;;;1.70;1.00;;;;;;5021650;28;20192;-77
2024/01/15 09:39:37;;;;;;;21.10;8.70;;;1.40;1.00;;;;;;5021524;28;20436;-74
2024/01/15 09:42:03;;;;;;;17.40;8.13;;;1.40;1.00;;;;;;5014225;28;20261;-73
2024/01/15 09:44:30;;;;;;;15.13;7.60;;;1.50;1.00;;;;;;5020557;28;20672;-74
2024/01/15 09:46:56;;;;;;;19.90;8.60;;;1.40;1.00;;;;;;5039599;28;20802;-77
2024/01/15 09:49:23;;;;;;;20.37;8.17;;;1.90;1.00;;;;;;5025399;28;20429;-75
2024/01/15 09:51:48;;;;;;;15.67;7.47;;;2.20;1.00;;;;;;5022300;28;20843;-75
2024/01/15 09:54:16;;;;;;;19.60;9.13;;;1.70;1.00;;;;;;5028660;28;20452;-76
2024/01/15 09:56:45;;;;;;;18.77;7.90;;;2.10;1.00;;;;;;5021216;28;20202;-76
2024/01/15 09:59:13;;;;;;;19.83;7.87;;;1.60;1.00;;;;;;5028642;28;20452;-74
2024/01/15 10:01:40;;;;;;;21.47;8.93;;;1.80;1.00;;;;;;5016022;28;20440;-75
2024/01/15 10:04:06;;;;;;;19.23;8.63;;;2.00;1.00;;;;;;5026049;28;20413;-73
2024/01/15 10:06:32;;;;;;;22.63;9.20;;;1.60;1.00;;;;;;5027716;28;20470;-74
2024/01/15 10:08:58;;;;;;;17.60;8.33;;;1.40;1.00;;;;;;5028870;28;20553;-74
2024/01/15 10:11:23;;;;;;;24.23;9.17;;;1.80;1.00;;;;;;5027293;28;20459;-74
2024/01/15 10:13:53;;;;;;;20.60;9.20;;;1.40;1.00;;;;;;5018718;28;20445;-75
2024/01/15 10:16:19;;;;;;;21.43;9.37;;;1.70;1.00;;;;;;5020311;28;20289;-74
2024/01/15 10:18:45;;;;;;;23.10;9.50;;;1.30;1.00;;;;;;5029260;28;20457;-73
2024/01/15 10:21:10;;;;;;;17.10;8.93;;;1.30;1.00;;;;;;5032471;28;20884;-73
2024/01/15 10:23:36;;;;;;;19.60;8.67;;;1.50;1.00;;;;;;5026966;28;20180;-74
2024/01/15 10:26:02;;;;;;;27.47;9.67;;;1.20;1.00;;;;;;5024643;28;20182;-74
2024/01/15 10:28:30;;;;;;;16.90;8.33;;;1.10;1.00;;;;;;5042576;28;20578;-74
2024/01/15 10:30:57;;;;;;;24.23;9.93;;;1.60;1.00;;;;;;5019801;28;20765;-71
2024/01/15 10:33:26;;;;;;;21.10;9.40;;;1.50;1.00;;;;;;5026208;28;20448;-74
2024/01/15 10:35:55;;;;;;;21.00;9.50;;;1.10;1.00;;;;;;5024775;28;20547;-72
2024/01/15 10:38:22;;;;;;;24.00;9.70;;;1.10;1.00;;;;;;5016476;28;20417;-77
2024/01/15 10:40:51;;;;;;;20.17;9.73;;;1.40;1.00;;;;;;5024775;28;20407;-74
2024/01/15 10:43:17;;;;;;;23.17;10.07;;;1.40;1.00;;;;;;5025257;28;20417;-74
2024/01/15 10:45:47;;;;;;;26.37;10.60;;;1.00;1.00;;;;;;5028605;28;20431;-73
2024/01/15 10:48:13;;;;;;;24.10;9.33;;;1.00;1.00;;;;;;5030198;28;20899;-75
2024/01/15 10:50:38;;;;;;;24.57;11.13;;;1.10;1.00;;;;;;5028655;28;20973;-78
2024/01/15 10:53:05;;;;;;;22.70;10.63;;;1.60;1.00;;;;;;5028793;28;20447;-74
2024/01/15 10:55:34;;;;;;;24.67;10.07;;;1.20;1.00;;;;;;5018881;28;20220;-76
2024/01/15 10:58:03;;;;;;;24.53;9.87;;;1.40;1.00;;;;;;5020149;28;20508;-76
2024/01/15 11:00:29;;;;;;;22.87;10.73;;;1.40;1.00;;;;;;5018460;28;20468;-77
2024/01/15 11:02:55;;;;;;;22.97;9.40;;;2.00;1.00;;;;;;5035999;28;20463;-77
2024/01/15 11:05:23;;;;;;;22.60;9.60;;;2.00;1.00;;;;;;5022059;28;20460;-74
2024/01/15 11:07:49;;;;;;;23.03;10.50;;;1.60;1.00;;;;;;5022030;28;20416;-77
2024/01/15 11:10:48;;;;;;;28.37;11.73;;;1.80;1.00;;;;;;5021210;28;20575;-76
2024/01/15 11:13:21;;;;;;;23.50;9.30;;;1.80;1.00;;;;;;5017608;28;20479;-75
2024/01/15 11:16:00;;;;;;;24.23;11.50;;;1.80;1.00;;;;;;5024585;28;20467;-73
2024/01/15 11:18:37;;;;;;;26.23;11.10;;;1.80;1.00;;;;;;5039409;28;20425;-73
2024/01/15 11:21:17;;;;;;;23.03;10.27;;;2.20;1.00;;;;;;5023527;28;20421;-74
2024/01/15 11:23:47;;;;;;;27.07;10.03;;;1.90;1.00;;;;;;5023282;28;20420;-75
2024/01/15 11:26:38;;;;;;;25.00;9.47;;;2.20;1.00;;;;;;5017946;28;20440;-74
2024/01/15 11:29:09;;;;;;;24.50;9.67;;;1.80;1.00;;;;;;5027572;28;20444;-74
2024/01/15 11:31:40;;;;;;;20.67;8.33;;;2.10;1.00;;;;;;5017357;28;20416;-75
2024/01/15 11:34:12;;;;;;;28.10;8.60;;;1.90;1.00;;;;;;5009735;28;20915;-74
2024/01/15 11:36:49;;;;;;;22.07;10.00;;;2.30;1.00;;;;;;5009399;28;20464;-75
2024/01/15 11:39:27;;;;;;;23.40;10.20;;;1.80;1.00;;;;;;5035065;28;20428;-74
2024/01/15 11:41:58;;;;;;;19.00;9.27;;;1.70;1.00;;;;;;5017537;28;20475;-74
2024/01/15 11:44:24;;;;;;;26.53;11.07;;;1.80;1.00;;;;;;5023972;28;20405;-74
2024/01/15 11:47:04;;;;;;;18.87;7.83;;;2.00;1.00;;;;;;5036147;28;20403;-78
2024/01/15 11:49:45;;;;;;;14.70;7.37;;;1.70;1.00;;;;;;5018633;28;20198;-74
2024/01/15 11:52:11;;;;;;;22.90;8.93;;;1.70;1.00;;;;;;5027829;28;20480;-77
2024/01/15 11:54:39;;;;;;;17.60;8.50;;;2.10;1.00;;;;;;5010306;28;20432;-76
2024/01/15 11:57:13;;;;;;;22.57;8.30;;;1.70;1.00;;;;;;5021363;28;20463;-77
2024/01/15 11:59:39;;;;;;;20.07;8.80;;;1.70;1.00;;;;;;5025975;28;20460;-76
2024/01/15 12:02:04;;;;;;;18.13;8.50;;;1.70;1.00;;;;;;5019939;28;20415;-74
2024/01/15 12:04:30;;;;;;;19.90;8.70;;;2.20;1.00;;;;;;5019982;28;20186;-73
2024/01/15 12:06:55;;;;;;;22.33;10.90;;;2.20;1.00;;;;;;5028533;28;20177;-76
2024/01/15 12:09:21;;;;;;;17.00;8.10;;;2.20;1.00;;;;;;5022036;28;20198;-74
2024/01/15 12:11:54;;;;;;;22.53;8.80;;;1.90;1.00;;;;;;5023106;28;20270;-75
2024/01/15 12:14:21;;;;;;;22.07;9.37;;;1.90;1.00;;;;;;5020530;28;20401;-76
2024/01/15 12:16:47;;;;;;;19.93;9.83;;;2.30;1.00;;;;;;5017687;28;20460;-73
2024/01/15 12:19:14;;;;;;;20.90;9.30;;;2.00;1.00;;;;;;5026734;28;20451;-75
2024/01/15 12:21:40;;;;;;;20.03;10.03;;;2.10;1.00;;;;;;5023946;28;20186;-77
2024/01/15 12:24:07;;;;;;;22.07;10.00;;;2.00;1.00;;;;;;5025761;28;20471;-76
2024/01/15 12:26:33;;;;;;;22.60;10.07;;;2.00;1.00;;;;;;5038959;28;20181;-73
2024/01/15 12:29:02;;;;;;;23.10;10.20;;;2.00;1.00;;;;;;5032476;28;20440;-74
2024/01/15 12:31:27;;;;;;;20.50;9.83;;;2.20;1.00;;;;;;5032636;28;20427;-75
2024/01/15 12:33:53;;;;;;;21.73;10.07;;;2.00;1.00;;;;;;5029027;28;20421;-74
2024/01/15 12:36:22;;;;;;;18.97;9.63;;;2.30;1.00;;;;;;5033072;28;20541;-74
2024/01/15 12:38:47;;;;;;;20.30;8.60;;;2.00;1.00;;;;;;5019481;28;20194;-75
2024/01/15 12:41:13;;;;;;;26.40;8.77;;;2.40;1.00;;;;;;5032822;28;20405;-74
2024/01/15 12:43:40;;;;;;;25.27;9.70;;;2.20;1.00;;;;;;5021214;28;20178;-75
2024/01/15 12:46:06;;;;;;;22.40;9.00;;;2.10;1.00;;;;;;5048418;28;20177;-74